createdAt,value
2023-02-22T00:01:19.451Z,100.00
2023-02-22T00:03:52.268Z,100.00
2023-02-22T00:06:21.856Z,100.00
2023-02-22T00:08:50.178Z,100.00
2023-02-22T00:11:18.035Z,100.00
2023-02-22T00:13:45.407Z,100.00
2023-02-22T00:16:18.707Z,100.00
2023-02-22T00:18:46.627Z,100.00
2023-02-22T00:21:15.584Z,100.00
2023-02-22T00:23:48.692Z,100.00
2023-02-22T00:26:20.027Z,100.00
2023-02-22T00:28:49.543Z,100.00
2023-02-22T00:31:22.808Z,100.00
2023-02-22T00:34:03.277Z,100.00
2023-02-22T00:36:30.752Z,100.00
2023-02-22T00:38:58.106Z,100.00
2023-02-22T00:41:25.659Z,100.00
2023-02-22T00:43:55.191Z,100.00
2023-02-22T00:46:22.595Z,100.00
2023-02-22T00:48:50.085Z,100.00
2023-02-22T00:51:17.757Z,100.00
2023-02-22T00:53:45.723Z,100.00
2023-02-22T00:56:15.016Z,100.00
2023-02-22T00:58:42.434Z,100.00
2023-02-22T01:01:09.895Z,100.00
2023-02-22T01:03:41.495Z,100.00
2023-02-22T01:06:08.994Z,100.00
2023-02-22T01:08:37.338Z,100.00
2023-02-22T01:11:04.986Z,100.00
2023-02-22T01:13:33.121Z,100.00
2023-02-22T01:16:01.514Z,100.00
2023-02-22T01:18:28.820Z,100.00
2023-02-22T01:20:56.286Z,100.00
2023-02-22T01:23:23.610Z,100.00
2023-02-22T01:25:52.133Z,100.00
2023-02-22T01:28:19.606Z,100.00
2023-02-22T01:30:48.635Z,100.00
2023-02-22T01:33:23.287Z,100.00
2023-02-22T01:35:51.572Z,100.00
2023-02-22T01:38:19.224Z,100.00
2023-02-22T01:40:50.682Z,100.00
2023-02-22T01:43:29.912Z,100.00
2023-02-22T01:46:21.421Z,100.00
2023-02-22T01:48:59.692Z,100.00
2023-02-22T01:51:31.391Z,100.00
2023-02-22T01:54:18.697Z,100.00
2023-02-22T01:57:01.190Z,100.00
2023-02-22T01:59:33.388Z,100.00
2023-02-22T02:02:00.935Z,100.00
2023-02-22T02:04:29.638Z,100.00
2023-02-22T02:07:01.910Z,100.00
2023-02-22T02:10:00.616Z,100.00
2023-02-22T02:12:36.071Z,100.00
2023-02-22T02:15:29.248Z,100.00
2023-02-22T02:18:01.053Z,100.00
2023-02-22T02:20:47.655Z,100.00
2023-02-22T02:23:26.182Z,100.00
2023-02-22T02:25:58.958Z,100.00
2023-02-22T02:28:30.965Z,100.00
2023-02-22T02:31:26.046Z,100.00
2023-02-22T02:34:16.875Z,100.00
2023-02-22T02:37:07.013Z,100.00
2023-02-22T02:40:11.663Z,100.00
2023-02-22T02:42:46.442Z,100.00
2023-02-22T02:45:24.264Z,100.00
2023-02-22T02:47:59.901Z,100.00
2023-02-22T02:50:34.235Z,100.00
2023-02-22T02:53:06.134Z,100.00
2023-02-22T02:55:37.022Z,100.00
2023-02-22T02:58:18.504Z,100.00
2023-02-22T03:00:46.445Z,100.00
2023-02-22T03:03:37.862Z,100.00
2023-02-22T03:06:20.712Z,100.00
2023-02-22T03:09:09.315Z,100.00
2023-02-22T03:12:12.152Z,100.00
2023-02-22T03:14:48.777Z,100.00
2023-02-22T03:17:49.374Z,100.00
2023-02-22T03:20:50.783Z,100.00
2023-02-22T03:23:44.514Z,100.00
2023-02-22T03:26:15.291Z,100.00
2023-02-22T03:28:51.524Z,100.00
2023-02-22T03:31:26.454Z,100.00
2023-02-22T03:33:59.323Z,100.00
2023-02-22T03:36:33.919Z,100.00
2023-02-22T03:39:04.555Z,100.00
2023-02-22T03:41:35.099Z,100.00
2023-02-22T03:44:09.769Z,100.00
2023-02-22T03:46:41.295Z,100.00
2023-02-22T03:49:35.765Z,100.00
2023-02-22T03:52:05.413Z,100.00
2023-02-22T03:54:33.405Z,100.00
2023-02-22T03:57:34.246Z,100.00
2023-02-22T04:00:07.128Z,100.00
2023-02-22T04:02:35.103Z,100.00
2023-02-22T04:05:03.083Z,100.00
2023-02-22T04:07:30.578Z,100.00
2023-02-22T04:09:59.195Z,100.00
2023-02-22T04:12:28.657Z,100.00
2023-02-22T04:14:55.899Z,100.00
2023-02-22T04:17:23.338Z,100.00
2023-02-22T04:19:51.723Z,100.00
2023-02-22T04:22:18.902Z,100.00
2023-02-22T04:24:46.337Z,100.00
2023-02-22T04:27:13.744Z,100.00
2023-02-22T04:29:41.463Z,100.00
2023-02-22T04:32:10.468Z,100.00
2023-02-22T04:34:37.679Z,100.00
2023-02-22T04:37:05.246Z,100.00
2023-02-22T04:39:32.700Z,100.00
2023-02-22T04:42:01.155Z,100.00
2023-02-22T04:44:28.605Z,100.00
2023-02-22T04:46:57.838Z,100.00
2023-02-22T04:49:31.785Z,100.00
2023-02-22T04:52:05.329Z,100.00
2023-02-22T04:54:32.843Z,100.00
2023-02-22T04:57:00.224Z,100.00
2023-02-22T04:59:28.665Z,100.00
2023-02-22T05:01:55.854Z,100.00
2023-02-22T05:04:24.111Z,100.00
2023-02-22T05:06:53.424Z,100.00
2023-02-22T05:09:22.147Z,100.00
2023-02-22T05:11:50.649Z,100.00
2023-02-22T05:14:18.032Z,100.00
2023-02-22T05:16:45.499Z,100.00
2023-02-22T05:19:13.045Z,100.00
2023-02-22T05:21:40.706Z,100.00
2023-02-22T05:24:09.913Z,100.00
2023-02-22T05:26:37.522Z,100.00
2023-02-22T05:29:04.787Z,100.00
2023-02-22T05:31:31.976Z,100.00
2023-02-22T05:33:59.356Z,100.00
2023-02-22T05:36:28.330Z,100.00
2023-02-22T05:38:56.412Z,100.00
2023-02-22T05:41:23.704Z,100.00
2023-02-22T05:43:51.109Z,100.00
2023-02-22T05:46:24.268Z,100.00
2023-02-22T05:48:51.698Z,100.00
2023-02-22T05:51:24.953Z,100.00
2023-02-22T05:53:52.918Z,100.00
2023-02-22T05:56:25.242Z,100.00
2023-02-22T05:58:52.995Z,100.00
2023-02-22T06:01:20.718Z,100.00
2023-02-22T06:03:50.039Z,100.00
2023-02-22T06:06:22.162Z,100.00
2023-02-22T06:08:50.895Z,100.00
2023-02-22T06:11:20.043Z,100.00
2023-02-22T06:13:52.721Z,100.00
2023-02-22T06:16:22.044Z,100.00
2023-02-22T06:18:49.750Z,100.00
2023-02-22T06:21:17.972Z,100.00
2023-02-22T06:23:48.197Z,100.00
2023-02-22T06:26:20.243Z,100.00
2023-02-22T06:28:47.608Z,100.00
2023-02-22T06:31:15.191Z,100.00
2023-02-22T06:33:42.725Z,100.00
2023-02-22T06:36:11.697Z,100.00
2023-02-22T06:38:39.226Z,100.00
2023-02-22T06:41:06.636Z,100.00
2023-02-22T06:43:34.116Z,100.00
2023-02-22T06:46:01.645Z,100.00
2023-02-22T06:48:28.988Z,100.00
2023-02-22T06:50:56.016Z,100.00
2023-02-22T06:53:23.519Z,100.00
2023-02-22T06:55:53.599Z,100.00
2023-02-22T06:58:20.925Z,100.00
2023-02-22T07:00:48.385Z,100.00
2023-02-22T07:03:16.693Z,100.00
2023-02-22T07:05:43.883Z,100.00
2023-02-22T07:08:12.292Z,100.00
2023-02-22T07:10:40.810Z,100.00
2023-02-22T07:13:09.390Z,100.00
2023-02-22T07:15:36.813Z,100.00
2023-02-22T07:18:04.717Z,100.00
2023-02-22T07:20:32.737Z,100.00
2023-02-22T07:23:01.527Z,100.00
2023-02-22T07:25:28.678Z,100.00
2023-02-22T07:27:56.013Z,100.00
2023-02-22T07:30:31.587Z,100.00
2023-02-22T07:33:01.804Z,100.00
2023-02-22T07:35:46.820Z,100.00
2023-02-22T07:38:16.372Z,100.00
2023-02-22T07:40:44.093Z,100.00
2023-02-22T07:43:22.819Z,100.00
2023-02-22T07:45:51.582Z,100.00
2023-02-22T07:48:20.902Z,100.00
2023-02-22T07:50:48.276Z,100.00
2023-02-22T07:53:30.493Z,100.00
2023-02-22T07:56:03.765Z,100.00
2023-02-22T07:58:32.954Z,100.00
2023-02-22T08:01:02.487Z,100.00
2023-02-22T08:03:34.560Z,100.00
2023-02-22T08:06:03.352Z,100.00
2023-02-22T08:08:30.633Z,100.00
2023-02-22T08:11:01.125Z,100.00
2023-02-22T08:13:29.633Z,100.00
2023-02-22T08:15:57.008Z,100.00
2023-02-22T08:18:25.824Z,100.00
2023-02-22T08:20:54.002Z,100.00
2023-02-22T08:23:25.513Z,100.00
2023-02-22T08:25:53.846Z,100.00
2023-02-22T08:28:23.813Z,100.00
2023-02-22T08:30:59.436Z,100.00
2023-02-22T08:33:26.845Z,100.00
2023-02-22T08:35:55.299Z,100.00
2023-02-22T08:38:29.192Z,100.00
2023-02-22T08:40:57.225Z,100.00
2023-02-22T08:43:24.988Z,100.00
2023-02-22T08:45:57.464Z,100.00
2023-02-22T08:48:31.316Z,100.00
2023-02-22T08:50:59.131Z,100.00
2023-02-22T08:53:27.316Z,100.00
2023-02-22T08:55:55.751Z,100.00
2023-02-22T08:58:24.309Z,100.00
2023-02-22T09:00:51.762Z,100.00
2023-02-22T09:03:19.308Z,100.00
2023-02-22T09:05:46.710Z,99.54
2023-02-22T09:08:15.553Z,97.08
2023-02-22T09:10:43.193Z,95.30
2023-02-22T09:13:12.315Z,93.99
2023-02-22T09:15:40.309Z,96.19
2023-02-22T09:18:09.530Z,96.52
2023-02-22T09:20:37.519Z,94.60
2023-02-22T09:23:09.922Z,92.72
2023-02-22T09:25:41.204Z,90.87
2023-02-22T09:28:09.458Z,89.71
2023-02-22T09:30:43.189Z,85.35
2023-02-22T09:33:13.733Z,84.80
2023-02-22T09:35:42.966Z,84.04
2023-02-22T09:38:11.644Z,82.31
2023-02-22T09:40:46.189Z,81.24
2023-02-22T09:43:25.465Z,82.44
2023-02-22T09:46:06.145Z,83.13
2023-02-22T09:48:49.194Z,83.40
2023-02-22T09:51:19.644Z,81.83
2023-02-22T09:53:50.138Z,79.63
2023-02-22T09:56:20.892Z,77.59
2023-02-22T09:58:53.054Z,73.96
2023-02-22T10:01:30.252Z,71.35
2023-02-22T10:04:23.290Z,69.67
2023-02-22T10:06:56.243Z,70.07
2023-02-22T10:09:30.754Z,70.87
2023-02-22T10:12:03.277Z,69.44
2023-02-22T10:14:43.804Z,68.81
2023-02-22T10:17:36.104Z,68.61
2023-02-22T10:20:41.349Z,62.58
2023-02-22T10:23:26.257Z,58.89
2023-02-22T10:26:00.782Z,55.58
2023-02-22T10:28:55.599Z,57.28
2023-02-22T10:31:31.598Z,56.40
2023-02-22T10:34:07.878Z,56.84
2023-02-22T10:36:39.410Z,58.33
2023-02-22T10:39:35.415Z,61.10
2023-02-22T10:42:07.214Z,61.48
2023-02-22T10:44:36.368Z,63.27
2023-02-22T10:47:07.425Z,62.74
2023-02-22T10:49:41.533Z,63.27
2023-02-22T10:52:19.719Z,64.17
2023-02-22T10:55:13.808Z,63.57
2023-02-22T10:57:42.589Z,64.21
2023-02-22T11:00:29.743Z,66.90
2023-02-22T11:03:02.171Z,66.50
2023-02-22T11:05:38.588Z,63.08
2023-02-22T11:08:16.940Z,59.95
2023-02-22T11:10:44.519Z,61.31
2023-02-22T11:13:28.315Z,61.06
2023-02-22T11:16:01.302Z,60.18
2023-02-22T11:18:35.427Z,59.67
2023-02-22T11:21:10.573Z,60.20
2023-02-22T11:23:40.607Z,59.53
2023-02-22T11:26:17.830Z,58.77
2023-02-22T11:28:56.371Z,59.09
2023-02-22T11:31:27.766Z,58.32
2023-02-22T11:34:03.265Z,57.00
2023-02-22T11:36:41.212Z,57.25
2023-02-22T11:39:34.619Z,57.45
2023-02-22T11:42:25.422Z,56.92
2023-02-22T11:45:21.776Z,58.45
2023-02-22T11:48:01.384Z,57.29
2023-02-22T11:50:40.171Z,58.49
2023-02-22T11:53:52.370Z,58.69
2023-02-22T11:56:37.953Z,58.86
2023-02-22T11:59:21.410Z,58.87
2023-02-22T12:02:00.262Z,58.66
2023-02-22T12:05:00.802Z,57.87
2023-02-22T12:07:33.264Z,58.66
2023-02-22T12:10:16.007Z,58.04
2023-02-22T12:13:10.908Z,58.34
2023-02-22T12:15:54.208Z,58.64
2023-02-22T12:18:35.986Z,58.77
2023-02-22T12:21:09.510Z,58.36
2023-02-22T12:23:46.209Z,57.65
2023-02-22T12:26:26.639Z,57.78
2023-02-22T12:29:05.544Z,56.53
2023-02-22T12:31:53.532Z,56.00
2023-02-22T12:34:29.890Z,55.54
2023-02-22T12:37:35.400Z,55.48
2023-02-22T12:40:24.406Z,55.23
2023-02-22T12:43:32.830Z,52.50
2023-02-22T12:46:13.349Z,51.63
2023-02-22T12:49:01.094Z,51.18
2023-02-22T12:51:42.391Z,50.06
2023-02-22T12:54:34.223Z,49.29
2023-02-22T12:57:33.619Z,49.65
2023-02-22T13:00:12.576Z,49.27
2023-02-22T13:02:47.963Z,50.18
2023-02-22T13:05:19.223Z,50.32
2023-02-22T13:08:02.054Z,50.65
2023-02-22T13:10:32.955Z,50.05
2023-02-22T13:13:21.852Z,50.22
2023-02-22T13:16:22.085Z,49.96
2023-02-22T13:19:15.107Z,49.90
2023-02-22T13:21:47.744Z,50.74
2023-02-22T13:24:17.791Z,49.72
2023-02-22T13:26:56.771Z,49.73
2023-02-22T13:29:47.120Z,49.48
2023-02-22T13:32:47.269Z,49.93
2023-02-22T13:35:42.352Z,49.20
2023-02-22T13:38:46.895Z,45.98
2023-02-22T13:41:14.092Z,44.75
2023-02-22T13:44:07.940Z,44.90
2023-02-22T13:46:58.223Z,44.83
2023-02-22T13:50:03.548Z,44.20
2023-02-22T13:52:35.151Z,43.38
2023-02-22T13:55:12.218Z,43.84
2023-02-22T13:57:52.025Z,44.12
2023-02-22T14:00:23.224Z,41.88
2023-02-22T14:03:08.635Z,41.04
2023-02-22T14:05:44.961Z,41.98
2023-02-22T14:08:19.187Z,42.34
2023-02-22T14:10:55.374Z,41.75
2023-02-22T14:13:30.207Z,43.07
2023-02-22T14:16:02.773Z,43.23
2023-02-22T14:18:35.604Z,43.86
2023-02-22T14:21:15.994Z,44.83
2023-02-22T14:23:47.501Z,45.34
2023-02-22T14:26:35.044Z,44.98
2023-02-22T14:29:08.465Z,44.73
2023-02-22T14:31:41.372Z,45.29
2023-02-22T14:34:17.703Z,45.44
2023-02-22T14:37:25.199Z,45.82
2023-02-22T14:40:15.850Z,47.18
2023-02-22T14:42:48.626Z,47.40
2023-02-22T14:45:30.135Z,48.45
2023-02-22T14:48:25.321Z,49.05
2023-02-22T14:51:11.894Z,49.97
2023-02-22T14:53:54.544Z,50.21
2023-02-22T14:56:23.716Z,50.23
2023-02-22T14:59:17.935Z,50.67
2023-02-22T15:02:02.170Z,51.17
2023-02-22T15:04:36.139Z,51.42
2023-02-22T15:07:21.510Z,51.87
2023-02-22T15:09:50.299Z,51.75
2023-02-22T15:12:30.413Z,51.36
2023-02-22T15:15:27.809Z,50.35
2023-02-22T15:17:59.138Z,50.03
2023-02-22T15:20:35.481Z,49.68
2023-02-22T15:23:02.910Z,49.30
2023-02-22T15:25:31.756Z,48.89
2023-02-22T15:28:09.735Z,48.60
2023-02-22T15:30:38.341Z,48.34
2023-02-22T15:33:18.032Z,47.92
2023-02-22T15:35:45.314Z,48.18
2023-02-22T15:38:12.843Z,48.74
2023-02-22T15:40:43.433Z,50.27
2023-02-22T15:43:25.429Z,50.93
2023-02-22T15:45:52.979Z,52.10
2023-02-22T15:48:28.510Z,52.84
2023-02-22T15:51:12.643Z,54.03
2023-02-22T15:53:46.374Z,54.44
2023-02-22T15:56:16.302Z,54.97
2023-02-22T15:58:46.769Z,55.51
2023-02-22T16:01:19.959Z,56.30
2023-02-22T16:04:00.249Z,57.30
2023-02-22T16:06:35.601Z,58.29
2023-02-22T16:09:26.398Z,59.00
2023-02-22T16:12:31.820Z,59.40
2023-02-22T16:15:17.134Z,59.91
2023-02-22T16:17:59.776Z,60.61
2023-02-22T16:20:32.813Z,60.97
2023-02-22T16:23:00.377Z,61.30
2023-02-22T16:25:36.103Z,61.46
2023-02-22T16:28:31.028Z,61.61
2023-02-22T16:31:05.611Z,61.98
2023-02-22T16:33:34.300Z,62.25
2023-02-22T16:36:06.565Z,62.55
2023-02-22T16:38:34.393Z,63.16
2023-02-22T16:41:01.842Z,63.34
2023-02-22T16:43:33.186Z,63.43
2023-02-22T16:46:02.006Z,64.10
2023-02-22T16:48:38.595Z,64.37
2023-02-22T16:51:55.919Z,64.87
2023-02-22T16:54:36.743Z,64.93
2023-02-22T16:57:06.116Z,65.60
2023-02-22T16:59:37.602Z,66.00
2023-02-22T17:02:08.272Z,65.86
2023-02-22T17:04:35.904Z,65.78
2023-02-22T17:07:05.207Z,65.92
2023-02-22T17:09:33.846Z,66.41
2023-02-22T17:12:02.316Z,66.48
2023-02-22T17:14:34.034Z,66.58
2023-02-22T17:17:01.960Z,66.84
2023-02-22T17:19:29.853Z,67.26
2023-02-22T17:21:59.544Z,67.34
2023-02-22T17:24:29.893Z,67.03
2023-02-22T17:27:00.599Z,66.97
2023-02-22T17:29:30.629Z,67.39
2023-02-22T17:31:59.231Z,67.94
2023-02-22T17:34:27.445Z,67.99
2023-02-22T17:36:55.647Z,68.15
2023-02-22T17:39:23.620Z,67.90
2023-02-22T17:41:58.057Z,67.70
2023-02-22T17:44:32.631Z,67.35
2023-02-22T17:47:02.535Z,67.28
2023-02-22T17:49:30.492Z,67.68
2023-02-22T17:52:00.151Z,67.49
2023-02-22T17:54:34.122Z,67.65
2023-02-22T17:57:02.432Z,68.20
2023-02-22T17:59:30.353Z,68.68
2023-02-22T18:01:58.696Z,68.96
2023-02-22T18:04:26.618Z,68.58
2023-02-22T18:06:55.834Z,68.11
2023-02-22T18:09:24.314Z,68.52
2023-02-22T18:11:59.327Z,69.29
2023-02-22T18:14:30.506Z,69.58
2023-02-22T18:17:01.018Z,70.29
2023-02-22T18:19:29.774Z,70.53
2023-02-22T18:22:03.810Z,71.00
2023-02-22T18:24:36.695Z,71.09
2023-02-22T18:27:07.676Z,71.17
2023-02-22T18:29:37.504Z,70.51
2023-02-22T18:32:08.925Z,71.36
2023-02-22T18:34:36.811Z,72.03
2023-02-22T18:37:06.448Z,72.08
2023-02-22T18:39:41.445Z,72.34
2023-02-22T18:42:14.180Z,72.32
2023-02-22T18:44:48.706Z,72.31
2023-02-22T18:47:17.144Z,72.17
2023-02-22T18:49:46.605Z,72.01
2023-02-22T18:52:16.559Z,72.19
2023-02-22T18:54:45.104Z,71.93
2023-02-22T18:57:14.704Z,71.81
2023-02-22T18:59:44.303Z,71.69
2023-02-22T19:02:19.936Z,72.08
2023-02-22T19:04:49.632Z,71.68
2023-02-22T19:07:20.269Z,71.54
2023-02-22T19:09:52.288Z,72.45
2023-02-22T19:12:21.401Z,72.21
2023-02-22T19:14:49.561Z,72.12
2023-02-22T19:17:17.432Z,71.58
2023-02-22T19:19:47.823Z,71.83
2023-02-22T19:22:16.772Z,72.47
2023-02-22T19:24:49.401Z,73.16
2023-02-22T19:27:27.180Z,73.54
2023-02-22T19:29:55.343Z,73.77
2023-02-22T19:32:24.295Z,73.57
2023-02-22T19:35:08.448Z,73.70
2023-02-22T19:37:37.995Z,73.32
2023-02-22T19:40:12.460Z,73.20
2023-02-22T19:42:51.151Z,72.95
2023-02-22T19:45:20.588Z,72.12
2023-02-22T19:47:57.754Z,72.75
2023-02-22T19:50:26.016Z,72.06
2023-02-22T19:52:56.792Z,71.92
2023-02-22T19:55:32.543Z,72.63
2023-02-22T19:58:03.154Z,73.84
2023-02-22T20:00:36.397Z,74.16
2023-02-22T20:03:10.042Z,74.21
2023-02-22T20:05:47.725Z,73.90
2023-02-22T20:08:16.447Z,73.68
2023-02-22T20:10:47.605Z,74.10
2023-02-22T20:13:17.894Z,74.54
2023-02-22T20:15:46.116Z,74.32
2023-02-22T20:18:14.946Z,73.88
2023-02-22T20:20:45.881Z,73.31
2023-02-22T20:23:13.960Z,73.27
2023-02-22T20:25:43.295Z,73.62
2023-02-22T20:28:14.665Z,74.25
2023-02-22T20:30:45.803Z,75.43
2023-02-22T20:33:15.302Z,76.05
2023-02-22T20:35:43.864Z,76.59
2023-02-22T20:38:14.148Z,76.49
2023-02-22T20:40:44.621Z,75.91
2023-02-22T20:43:12.763Z,75.90
2023-02-22T20:45:41.205Z,75.95
2023-02-22T20:48:13.059Z,76.10
2023-02-22T20:50:43.573Z,76.19
2023-02-22T20:53:11.993Z,76.16
2023-02-22T20:55:51.159Z,76.12
2023-02-22T20:58:23.691Z,76.46
2023-02-22T21:00:58.148Z,76.98
2023-02-22T21:03:27.665Z,77.15
2023-02-22T21:05:55.873Z,76.93
2023-02-22T21:08:31.004Z,77.32
2023-02-22T21:10:59.880Z,78.41
2023-02-22T21:13:33.831Z,78.65
2023-02-22T21:16:03.630Z,79.15
2023-02-22T21:18:31.716Z,79.73
2023-02-22T21:21:13.234Z,79.49
2023-02-22T21:23:41.889Z,80.05
2023-02-22T21:26:21.164Z,79.55
2023-02-22T21:28:55.722Z,80.09
2023-02-22T21:31:27.508Z,80.71
2023-02-22T21:34:05.017Z,81.26
2023-02-22T21:36:32.802Z,81.43
2023-02-22T21:39:08.828Z,81.53
2023-02-22T21:41:40.511Z,82.32
2023-02-22T21:44:10.104Z,82.27
2023-02-22T21:46:47.620Z,82.52
2023-02-22T21:49:15.320Z,82.54
2023-02-22T21:51:45.014Z,82.80
2023-02-22T21:54:13.169Z,82.95
2023-02-22T21:56:43.451Z,82.83
2023-02-22T21:59:19.088Z,83.21
2023-02-22T22:01:50.310Z,83.40
2023-02-22T22:04:21.260Z,83.86
2023-02-22T22:06:53.995Z,83.85
2023-02-22T22:09:24.264Z,84.15
2023-02-22T22:12:06.485Z,83.83
2023-02-22T22:14:35.477Z,83.80
2023-02-22T22:17:05.935Z,84.13
2023-02-22T22:19:39.474Z,83.87
2023-02-22T22:22:08.323Z,83.58
2023-02-22T22:24:37.365Z,83.60
2023-02-22T22:27:06.698Z,84.26
2023-02-22T22:29:34.752Z,84.95
2023-02-22T22:32:03.582Z,85.20
2023-02-22T22:34:31.331Z,85.74
2023-02-22T22:36:59.682Z,85.74
2023-02-22T22:39:29.156Z,85.59
2023-02-22T22:41:57.222Z,85.00
2023-02-22T22:44:24.594Z,85.17
2023-02-22T22:46:55.095Z,85.33
2023-02-22T22:49:25.611Z,85.46
2023-02-22T22:51:54.810Z,85.10
2023-02-22T22:54:22.062Z,85.46
2023-02-22T22:56:49.615Z,86.09
2023-02-22T22:59:18.272Z,86.58
2023-02-22T23:01:47.719Z,87.25
2023-02-22T23:04:17.208Z,87.77
2023-02-22T23:06:51.122Z,88.10
2023-02-22T23:09:28.137Z,89.01
2023-02-22T23:12:09.164Z,89.50
2023-02-22T23:14:44.415Z,90.25
2023-02-22T23:17:27.104Z,90.57
2023-02-22T23:19:54.250Z,90.66
2023-02-22T23:22:21.793Z,89.82
2023-02-22T23:24:51.204Z,89.39
2023-02-22T23:27:19.306Z,90.29
2023-02-22T23:29:47.662Z,91.49
2023-02-22T23:32:16.144Z,92.49
2023-02-22T23:34:44.257Z,92.89
2023-02-22T23:37:14.370Z,93.20
2023-02-22T23:39:43.604Z,93.78
2023-02-22T23:42:11.125Z,94.64
2023-02-22T23:44:40.080Z,94.89
2023-02-22T23:47:07.512Z,95.33
2023-02-22T23:49:38.788Z,95.81
2023-02-22T23:52:08.279Z,95.87
2023-02-22T23:54:44.241Z,95.69
2023-02-22T23:57:11.793Z,96.07
2023-02-22T23:59:45.912Z,96.37
